Time,TemperatureF,DewpointF,PressureIn,WindDirection,WindDirectionDegrees,WindSpeedMPH,WindSpeedGustMPH,Humidity,HourlyPrecipIn,Conditions,Clouds,dailyrainin,SolarRadiationWatts/m^2,SoftwareType,DateUTC
2013-09-23 00:22:00,43.0,41.0,-100.00,SSW,196,1.0,5.0,92,0.02,,,0.73,0.000000,,2013-09-23 06:22:00,
2013-09-23 00:32:00,43.0,41.0,-100.00,SSW,196,1.0,5.0,92,0.02,,,0.73,0.000000,,2013-09-23 06:32:00,
2013-09-23 00:42:00,43.0,41.0,-100.00,SSW,196,1.0,5.0,92,0.02,,,0.73,0.000000,,2013-09-23 06:42:00,
2013-09-23 00:51:00,43.0,42.0,-100.00,West,264,4.0,5.0,95,0.03,,,0.76,0.000000,,2013-09-23 06:51:00,
2013-09-23 01:22:00,43.0,42.0,-100.00,West,264,4.0,5.0,95,0.03,,,0.76,0.000000,,2013-09-23 07:22:00,
2013-09-23 01:32:00,43.0,42.0,-100.00,West,264,4.0,5.0,95,0.03,,,0.76,0.000000,,2013-09-23 07:32:00,
2013-09-23 01:42:00,43.0,42.0,-100.00,West,264,4.0,5.0,95,0.03,,,0.76,0.000000,,2013-09-23 07:42:00,
2013-09-23 01:51:00,43.0,42.0,-100.00,South,169,2.0,5.0,95,0.04,,,0.80,0.000000,,2013-09-23 07:51:00,
2013-09-23 02:22:00,43.0,42.0,-100.00,South,169,2.0,5.0,95,0.04,,,0.80,0.000000,,2013-09-23 08:22:00,
2013-09-23 02:32:00,43.0,42.0,-100.00,South,169,2.0,5.0,95,0.04,,,0.80,0.000000,,2013-09-23 08:32:00,
2013-09-23 02:42:00,43.0,42.0,-100.00,South,169,2.0,5.0,95,0.04,,,0.80,0.000000,,2013-09-23 08:42:00,
2013-09-23 02:51:00,43.0,42.0,-100.00,NNW,333,0.0,4.0,97,0.03,,,0.83,0.000000,,2013-09-23 08:51:00,
2013-09-23 03:21:00,43.0,42.0,-100.00,NNW,333,0.0,4.0,97,0.03,,,0.83,0.000000,,2013-09-23 09:21:00,
2013-09-23 03:33:00,43.0,42.0,-100.00,NNW,333,0.0,4.0,97,0.03,,,0.83,0.000000,,2013-09-23 09:33:00,
2013-09-23 03:42:00,43.0,42.0,-100.00,NNW,333,0.0,4.0,97,0.03,,,0.83,0.000000,,2013-09-23 09:42:00,
2013-09-23 03:51:00,44.0,43.0,-100.00,WNW,288,10.0,17.0,97,0.01,,,0.84,0.000000,,2013-09-23 09:51:00,
2013-09-23 04:23:00,44.0,43.0,-100.00,WNW,288,10.0,17.0,97,0.01,,,0.84,0.000000,,2013-09-23 10:23:00,
2013-09-23 04:33:00,44.0,43.0,-100.00,WNW,288,10.0,17.0,97,0.01,,,0.84,0.000000,,2013-09-23 10:33:00,
2013-09-23 04:42:00,44.0,43.0,-100.00,WNW,288,10.0,17.0,97,0.01,,,0.84,0.000000,,2013-09-23 10:42:00,
2013-09-23 04:51:00,44.0,43.0,-100.00,WNW,289,7.0,21.0,98,0.00,,,0.84,0.000000,,2013-09-23 10:51:00,
2013-09-23 05:21:00,44.0,43.0,-100.00,WNW,289,7.0,21.0,98,0.00,,,0.84,0.000000,,2013-09-23 11:21:00,
2013-09-23 05:33:00,44.0,43.0,-100.00,WNW,289,7.0,21.0,98,0.00,,,0.84,0.000000,,2013-09-23 11:33:00,
2013-09-23 05:42:00,44.0,43.0,-100.00,WNW,289,7.0,21.0,98,0.00,,,0.84,0.000000,,2013-09-23 11:42:00,
2013-09-23 05:51:00,44.0,43.0,-100.00,SSW,204,1.0,11.0,97,0.00,,,0.84,0.000000,,2013-09-23 11:51:00,
2013-09-23 06:22:00,44.0,43.0,-100.00,SSW,204,1.0,11.0,97,0.00,,,0.84,0.000000,,2013-09-23 12:22:00,
2013-09-23 06:32:00,44.0,43.0,-100.00,SSW,204,1.0,11.0,97,0.00,,,0.84,0.000000,,2013-09-23 12:32:00,
2013-09-23 06:42:00,44.0,43.0,-100.00,SSW,204,1.0,11.0,97,0.00,,,0.84,0.000000,,2013-09-23 12:42:00,
2013-09-23 06:51:00,44.0,43.0,-100.00,SW,215,2.0,6.0,97,0.00,,,0.84,0.000000,,2013-09-23 12:51:00,
2013-09-23 07:21:00,44.0,43.0,-100.00,SW,215,2.0,6.0,97,0.00,,,0.84,0.000000,,2013-09-23 13:21:00,
2013-09-23 07:32:00,44.0,43.0,-100.00,SW,215,2.0,6.0,97,0.00,,,0.84,0.000000,,2013-09-23 13:32:00,
2013-09-23 07:42:00,44.0,43.0,-100.00,SW,215,2.0,6.0,97,0.00,,,0.84,0.000000,,2013-09-23 13:42:00,
2013-09-23 07:51:00,45.0,43.0,-100.00,WSW,258,15.0,21.0,91,0.00,,,0.84,13.000000,,2013-09-23 13:51:00,
2013-09-23 08:22:00,45.0,43.0,-100.00,WSW,258,15.0,21.0,91,0.00,,,0.84,13.000000,,2013-09-23 14:22:00,
2013-09-23 08:32:00,45.0,43.0,-100.00,WSW,258,15.0,21.0,91,0.00,,,0.84,13.000000,,2013-09-23 14:32:00,
2013-09-23 08:42:00,45.0,43.0,-100.00,WSW,258,15.0,21.0,91,0.00,,,0.84,13.000000,,2013-09-23 14:42:00,
2013-09-23 08:51:00,49.0,42.0,-100.00,West,263,12.0,19.0,77,0.00,,,0.84,50.000000,,2013-09-23 14:51:00,
2013-09-23 09:21:00,49.0,42.0,-100.00,West,263,12.0,19.0,77,0.00,,,0.84,50.000000,,2013-09-23 15:21:00,
2013-09-23 09:33:00,49.0,42.0,-100.00,West,263,12.0,19.0,77,0.00,,,0.84,50.000000,,2013-09-23 15:33:00,
2013-09-23 09:43:00,49.0,42.0,-100.00,West,263,12.0,19.0,77,0.00,,,0.84,50.000000,,2013-09-23 15:43:00,
2013-09-23 09:51:00,53.0,40.0,-100.00,WNW,283,6.0,17.0,62,0.00,,,0.84,80.000000,,2013-09-23 15:51:00,
2013-09-23 10:23:00,53.0,40.0,-100.00,WNW,283,6.0,17.0,62,0.00,,,0.84,80.000000,,2013-09-23 16:23:00,
2013-09-23 10:33:00,53.0,40.0,-100.00,WNW,283,6.0,17.0,62,0.00,,,0.84,80.000000,,2013-09-23 16:33:00,
2013-09-23 10:43:00,53.0,40.0,-100.00,WNW,283,6.0,17.0,62,0.00,,,0.84,80.000000,,2013-09-23 16:43:00,
2013-09-23 10:51:00,53.0,38.0,-100.00,WNW,293,6.0,15.0,56,0.00,,,0.84,192.000000,,2013-09-23 16:51:00,
2013-09-23 11:24:00,53.0,38.0,-100.00,WNW,293,6.0,15.0,56,0.00,,,0.84,192.000000,,2013-09-23 17:24:00,
2013-09-23 11:34:00,53.0,38.0,-100.00,WNW,293,6.0,15.0,56,0.00,,,0.84,192.000000,,2013-09-23 17:34:00,
2013-09-23 11:42:00,53.0,38.0,-100.00,WNW,293,6.0,15.0,56,0.00,,,0.84,192.000000,,2013-09-23 17:42:00,
2013-09-23 11:51:00,55.0,36.0,-100.00,WSW,247,7.0,12.0,49,0.00,,,0.84,299.000000,,2013-09-23 17:51:00,
2013-09-23 12:21:00,55.0,36.0,-100.00,WSW,247,7.0,12.0,49,0.00,,,0.84,299.000000,,2013-09-23 18:21:00,
2013-09-23 12:33:00,55.0,36.0,-100.00,WSW,247,7.0,12.0,49,0.00,,,0.84,299.000000,,2013-09-23 18:33:00,
2013-09-23 12:42:00,55.0,36.0,-100.00,WSW,247,7.0,12.0,49,0.00,,,0.84,299.000000,,2013-09-23 18:42:00,
2013-09-23 12:51:00,58.0,37.0,-100.00,West,279,2.0,14.0,45,0.00,,,0.71,513.000000,,2013-09-23 18:51:00,
2013-09-23 13:22:00,58.0,37.0,-100.00,West,279,2.0,14.0,45,0.00,,,0.71,513.000000,,2013-09-23 19:22:00,
2013-09-23 13:32:00,58.0,37.0,-100.00,West,279,2.0,14.0,45,0.00,,,0.71,513.000000,,2013-09-23 19:32:00,
2013-09-23 13:42:00,58.0,37.0,-100.00,West,279,2.0,14.0,45,0.00,,,0.71,513.000000,,2013-09-23 19:42:00,
2013-09-23 13:51:00,60.0,37.0,-100.00,West,264,6.0,12.0,42,0.00,,,0.67,636.000000,,2013-09-23 19:51:00,
2013-09-23 14:21:00,60.0,37.0,-100.00,West,264,6.0,12.0,42,0.00,,,0.67,636.000000,,2013-09-23 20:21:00,
2013-09-23 14:32:00,60.0,37.0,-100.00,West,264,6.0,12.0,42,0.00,,,0.67,636.000000,,2013-09-23 20:32:00,
2013-09-23 14:42:00,60.0,37.0,-100.00,West,264,6.0,12.0,42,0.00,,,0.67,636.000000,,2013-09-23 20:42:00,
2013-09-23 14:51:00,60.0,36.0,-100.00,SW,232,4.0,11.0,41,0.00,,,0.67,700.000000,,2013-09-23 20:51:00,
2013-09-23 15:23:00,60.0,36.0,-100.00,SW,232,4.0,11.0,41,0.00,,,0.67,700.000000,,2013-09-23 21:23:00,
2013-09-23 15:34:00,60.0,36.0,-100.00,SW,232,4.0,11.0,41,0.00,,,0.67,700.000000,,2013-09-23 21:34:00,
2013-09-23 15:44:00,60.0,36.0,-100.00,SW,232,4.0,11.0,41,0.00,,,0.67,700.000000,,2013-09-23 21:44:00,
2013-09-23 15:51:00,61.0,38.0,-100.00,WSW,239,10.0,13.0,42,0.00,,,0.64,540.000000,,2013-09-23 21:51:00,
2013-09-23 16:23:00,61.0,38.0,-100.00,WSW,239,10.0,13.0,42,0.00,,,0.64,540.000000,,2013-09-23 22:23:00,
2013-09-23 16:33:00,61.0,38.0,-100.00,WSW,239,10.0,13.0,42,0.00,,,0.64,540.000000,,2013-09-23 22:33:00,
2013-09-23 16:43:00,61.0,38.0,-100.00,WSW,239,10.0,13.0,42,0.00,,,0.64,540.000000,,2013-09-23 22:43:00,
2013-09-23 16:51:00,63.0,36.0,-100.00,WSW,252,6.0,15.0,37,0.00,,,0.56,626.000000,,2013-09-23 22:51:00,
2013-09-23 17:22:00,63.0,36.0,-100.00,WSW,252,6.0,15.0,37,0.00,,,0.56,626.000000,,2013-09-23 23:22:00,
2013-09-23 17:34:00,63.0,36.0,-100.00,WSW,252,6.0,15.0,37,0.00,,,0.56,626.000000,,2013-09-23 23:34:00,
2013-09-23 17:42:00,63.0,36.0,-100.00,WSW,252,6.0,15.0,37,0.00,,,0.56,626.000000,,2013-09-23 23:42:00,
2013-09-23 17:51:00,61.0,38.0,-100.00,West,275,8.0,14.0,42,0.00,,,0.33,387.000000,,2013-09-23 23:51:00,
2013-09-23 18:22:00,61.0,38.0,-100.00,West,275,8.0,14.0,42,0.00,,,0.33,387.000000,,2013-09-24 00:22:00,
2013-09-23 18:32:00,61.0,38.0,-100.00,West,275,8.0,14.0,42,0.00,,,0.33,387.000000,,2013-09-24 00:32:00,
2013-09-23 18:42:00,61.0,38.0,-100.00,West,275,8.0,14.0,42,0.00,,,0.33,387.000000,,2013-09-24 00:42:00,
2013-09-23 18:51:00,57.0,38.0,-100.00,West,263,11.0,16.0,48,0.00,,,0.20,141.000000,,2013-09-24 00:51:00,
2013-09-23 19:21:00,57.0,38.0,-100.00,West,263,11.0,16.0,48,0.00,,,0.20,141.000000,,2013-09-24 01:21:00,
2013-09-23 19:32:00,57.0,38.0,-100.00,West,263,11.0,16.0,48,0.00,,,0.20,141.000000,,2013-09-24 01:32:00,
2013-09-23 19:43:00,57.0,38.0,-100.00,West,263,11.0,16.0,48,0.00,,,0.20,141.000000,,2013-09-24 01:43:00,
2013-09-23 19:51:00,55.0,38.0,-100.00,West,262,12.0,16.0,52,0.00,,,0.14,4.000000,,2013-09-24 01:51:00,
2013-09-23 20:22:00,55.0,38.0,-100.00,West,262,12.0,16.0,52,0.00,,,0.14,4.000000,,2013-09-24 02:22:00,
2013-09-23 20:32:00,55.0,38.0,-100.00,West,262,12.0,16.0,52,0.00,,,0.14,4.000000,,2013-09-24 02:32:00,
2013-09-23 20:42:00,55.0,38.0,-100.00,West,262,12.0,16.0,52,0.00,,,0.14,4.000000,,2013-09-24 02:42:00,
2013-09-23 20:51:00,55.0,36.0,-100.00,West,281,3.0,13.0,49,0.00,,,0.14,0.000000,,2013-09-24 02:51:00,
2013-09-23 21:22:00,55.0,36.0,-100.00,West,281,3.0,13.0,49,0.00,,,0.14,0.000000,,2013-09-24 03:22:00,
2013-09-23 21:35:00,55.0,36.0,-100.00,West,281,3.0,13.0,49,0.00,,,0.14,0.000000,,2013-09-24 03:35:00,
2013-09-23 21:44:00,55.0,36.0,-100.00,West,281,3.0,13.0,49,0.00,,,0.14,0.000000,,2013-09-24 03:44:00,
2013-09-23 21:51:00,53.0,35.0,-100.00,South,171,4.0,6.0,51,0.00,,,0.14,0.000000,,2013-09-24 03:51:00,
2013-09-23 22:24:00,53.0,35.0,-100.00,South,171,4.0,6.0,51,0.00,,,0.14,0.000000,,2013-09-24 04:24:00,
2013-09-23 22:33:00,53.0,35.0,-100.00,South,171,4.0,6.0,51,0.00,,,0.14,0.000000,,2013-09-24 04:33:00,
2013-09-23 22:44:00,53.0,35.0,-100.00,South,171,4.0,6.0,51,0.00,,,0.14,0.000000,,2013-09-24 04:44:00,
2013-09-23 22:51:00,52.0,35.0,-100.00,ESE,120,1.0,4.0,52,0.00,,,0.13,0.000000,,2013-09-24 04:51:00,
2013-09-23 23:22:00,52.0,35.0,-100.00,ESE,120,1.0,4.0,52,0.00,,,0.13,0.000000,,2013-09-24 05:22:00,
2013-09-23 23:34:00,52.0,35.0,-100.00,ESE,120,1.0,4.0,52,0.00,,,0.13,0.000000,,2013-09-24 05:34:00,
2013-09-23 23:43:00,52.0,35.0,-100.00,ESE,120,1.0,4.0,52,0.00,,,0.13,0.000000,,2013-09-24 05:43:00,
2013-09-23 23:51:00,46.0,38.0,-100.00,NW,304,4.0,5.0,73,0.00,,,0.11,0.000000,,2013-09-24 05:51:00,